createdAt,value
2022-12-13T00:01:27.436Z,99658.91
2022-12-13T00:03:55.456Z,99664.13
2022-12-13T00:06:22.380Z,99668.81
2022-12-13T00:08:49.247Z,99664.56
2022-12-13T00:11:16.610Z,99665.75
2022-12-13T00:13:43.886Z,99663.44
2022-12-13T00:16:19.920Z,99659.28
2022-12-13T00:18:49.860Z,99651.78
2022-12-13T00:21:18.959Z,99664.47
2022-12-13T00:23:46.747Z,99659.94
2022-12-13T00:26:19.233Z,99659.56
2022-12-13T00:28:49.207Z,99655.94
2022-12-13T00:34:05.750Z,99649.22
2022-12-13T00:36:33.162Z,99657.81
2022-12-13T00:39:02.919Z,99658.63
2022-12-13T00:41:33.379Z,99666.00
2022-12-13T00:44:01.155Z,99666.25
2022-12-13T00:46:28.838Z,99670.41
2022-12-13T00:48:59.827Z,99670.56
2022-12-13T00:51:28.762Z,99674.47
2022-12-13T00:53:55.939Z,99674.88
2022-12-13T00:56:25.657Z,99668.34
2022-12-13T00:58:53.358Z,99674.22
2022-12-13T01:01:24.560Z,99672.84
2022-12-13T01:03:53.057Z,99683.34
2022-12-13T01:06:24.101Z,99675.03
2022-12-13T01:08:53.582Z,99680.66
2022-12-13T01:11:20.500Z,99667.75
2022-12-13T01:13:47.535Z,99672.69
2022-12-13T01:16:14.769Z,99673.91
2022-12-13T01:18:41.974Z,99673.09
2022-12-13T01:21:15.125Z,99680.88
2022-12-13T01:23:42.695Z,99677.66
2022-12-13T01:26:19.818Z,99668.34
2022-12-13T01:28:47.635Z,99669.84
2022-12-13T01:31:17.852Z,99670.59
2022-12-13T01:33:44.707Z,99680.84
2022-12-13T01:36:28.000Z,99671.53
2022-12-13T01:38:58.681Z,99670.75
2022-12-13T01:41:27.234Z,99674.38
2022-12-13T01:44:03.756Z,99676.53
2022-12-13T01:46:33.350Z,99677.66
2022-12-13T01:49:19.755Z,99672.28
2022-12-13T01:52:00.069Z,99670.16
2022-12-13T01:54:34.583Z,99672.31
2022-12-13T01:57:04.576Z,99671.00
2022-12-13T01:59:32.486Z,99668.69
2022-12-13T02:02:01.006Z,99665.91
2022-12-13T02:04:44.223Z,99673.09
2022-12-13T02:07:22.957Z,99677.13
2022-12-13T02:09:56.800Z,99683.03
2022-12-13T02:12:29.812Z,99675.53
2022-12-13T02:15:01.435Z,99677.94
2022-12-13T02:17:53.368Z,99677.41
2022-12-13T02:20:47.525Z,99672.84
2022-12-13T02:23:32.696Z,99672.31
2022-12-13T02:26:37.020Z,99677.66
2022-12-13T02:29:10.076Z,99671.34
2022-12-13T02:32:00.629Z,99677.25
2022-12-13T02:34:34.053Z,99676.59
2022-12-13T02:37:17.831Z,99677.56
2022-12-13T02:39:48.831Z,99678.75
2022-12-13T02:42:24.360Z,99682.75
2022-12-13T02:44:57.424Z,99683.84
2022-12-13T02:47:27.292Z,99680.09
2022-12-13T02:49:59.217Z,99675.28
2022-12-13T02:52:29.219Z,99691.13
2022-12-13T02:54:57.260Z,99675.69
2022-12-13T02:57:33.399Z,99672.59
2022-12-13T03:00:06.456Z,99674.22
2022-12-13T03:02:57.751Z,99678.19
2022-12-13T03:06:03.720Z,99683.84
2022-12-13T03:08:45.489Z,99681.72
2022-12-13T03:11:16.490Z,99678.25
2022-12-13T03:13:56.891Z,99682.41
2022-12-13T03:16:34.739Z,99686.97
2022-12-13T03:19:04.461Z,99676.09
2022-12-13T03:21:43.934Z,99674.84
2022-12-13T03:24:20.455Z,99672.56
2022-12-13T03:26:51.799Z,99676.00
2022-12-13T03:29:23.912Z,99672.34
2022-12-13T03:31:52.294Z,99673.78
2022-12-13T03:34:22.898Z,99675.34
2022-12-13T03:36:51.827Z,99669.13
2022-12-13T03:39:19.335Z,99669.75
2022-12-13T03:41:46.257Z,99662.16
2022-12-13T03:44:13.834Z,99667.09
2022-12-13T03:46:41.170Z,99666.75
2022-12-13T03:49:10.443Z,99669.91
2022-12-13T03:51:40.736Z,99665.44
2022-12-13T03:54:07.456Z,99673.31
2022-12-13T03:56:34.251Z,99674.50
2022-12-13T03:59:02.428Z,99677.28
2022-12-13T04:01:29.579Z,99679.13
2022-12-13T04:03:56.532Z,99676.16
2022-12-13T04:06:27.479Z,99678.81
2022-12-13T04:08:58.206Z,99680.69
2022-12-13T04:11:43.592Z,99677.44
2022-12-13T04:14:11.047Z,99675.38
2022-12-13T04:16:37.864Z,99677.34
2022-12-13T04:19:04.758Z,99681.75
2022-12-13T04:21:31.669Z,99676.22
2022-12-13T04:24:00.900Z,99678.09
2022-12-13T04:26:28.552Z,99672.41
2022-12-13T04:28:55.539Z,99674.28
2022-12-13T04:31:22.928Z,99672.66
2022-12-13T04:33:51.743Z,99670.38
2022-12-13T04:36:32.010Z,99666.31
2022-12-13T04:39:01.083Z,99657.88
2022-12-13T04:41:34.265Z,99656.38
2022-12-13T04:44:01.743Z,99660.91
2022-12-13T04:46:28.614Z,99656.75
2022-12-13T04:48:57.833Z,99656.16
2022-12-13T04:51:24.786Z,99654.56
2022-12-13T04:53:52.657Z,99658.25
2022-12-13T04:56:20.047Z,99645.66
2022-12-13T04:58:46.974Z,99655.00
2022-12-13T05:02:34.178Z,99649.81
2022-12-13T05:05:01.537Z,99646.81
2022-12-13T05:07:30.476Z,99649.47
2022-12-13T05:09:57.220Z,99649.72
2022-12-13T05:12:23.971Z,99651.56
2022-12-13T05:14:53.872Z,99645.91
2022-12-13T05:17:21.021Z,99642.56
2022-12-13T05:19:48.130Z,99640.59
2022-12-13T05:22:20.706Z,99644.06
2022-12-13T05:24:48.202Z,99634.25
2022-12-13T05:27:25.808Z,99651.09
2022-12-13T05:30:05.271Z,99650.41
2022-12-13T05:32:44.144Z,99637.97
2022-12-13T05:35:22.532Z,99640.72
2022-12-13T05:37:55.379Z,99639.81
2022-12-13T05:40:23.399Z,99636.56
2022-12-13T05:42:50.103Z,99638.16
2022-12-13T05:45:19.663Z,99639.91
2022-12-13T05:47:47.254Z,99629.88
2022-12-13T05:50:15.973Z,99635.75
2022-12-13T05:52:45.300Z,99639.22
2022-12-13T05:55:12.808Z,99646.28
2022-12-13T05:57:39.795Z,99643.03
2022-12-13T06:00:29.955Z,99643.25
2022-12-13T06:02:56.631Z,99649.94
2022-12-13T06:05:27.513Z,99655.97
2022-12-13T06:07:57.496Z,99652.59
2022-12-13T06:10:34.073Z,99654.13
2022-12-13T06:13:22.165Z,99649.94
2022-12-13T06:15:52.778Z,99653.41
2022-12-13T06:18:30.404Z,99656.88
2022-12-13T06:20:59.219Z,99661.28
2022-12-13T06:23:26.617Z,99658.13
2022-12-13T06:25:54.665Z,99661.47
2022-12-13T06:28:21.525Z,99668.41
2022-12-13T06:30:48.840Z,99673.38
2022-12-13T06:33:15.833Z,99667.69
2022-12-13T06:35:52.635Z,99669.34
2022-12-13T06:38:22.033Z,99667.69
2022-12-13T06:41:08.566Z,99670.59
2022-12-13T06:43:35.824Z,99675.31
2022-12-13T06:46:06.782Z,99676.03
2022-12-13T06:48:36.419Z,99680.31
2022-12-13T06:51:08.489Z,99674.31
2022-12-13T06:53:41.387Z,99674.41
2022-12-13T06:56:14.249Z,99683.91
2022-12-13T06:58:42.095Z,99679.75
2022-12-13T07:01:14.965Z,99683.22
2022-12-13T07:03:42.297Z,99686.00
2022-12-13T07:06:14.545Z,99685.19
2022-12-13T07:08:43.065Z,99686.75
2022-12-13T07:11:15.692Z,99686.59
2022-12-13T07:13:44.429Z,99687.44
2022-12-13T07:16:13.032Z,99689.28
2022-12-13T07:18:40.009Z,99693.88
2022-12-13T07:21:08.731Z,99696.34
2022-12-13T07:23:54.723Z,99700.38
2022-12-13T07:26:24.373Z,99686.84
2022-12-13T07:28:55.309Z,99693.53
2022-12-13T07:31:24.240Z,99698.94
2022-12-13T07:33:51.727Z,99704.06
2022-12-13T07:36:21.402Z,99704.31
2022-12-13T07:38:52.791Z,99707.22
2022-12-13T07:41:23.014Z,99702.94
2022-12-13T07:43:55.116Z,99698.50
2022-12-13T07:46:32.314Z,99706.34
2022-12-13T07:49:04.102Z,99699.63
2022-12-13T07:51:33.110Z,99708.53
2022-12-13T07:54:00.916Z,99711.13
2022-12-13T07:56:33.948Z,99705.50
2022-12-13T07:59:00.690Z,99712.00
2022-12-13T08:01:28.604Z,99702.63
2022-12-13T08:03:56.713Z,99707.50
2022-12-13T08:06:23.515Z,99712.41
2022-12-13T08:08:51.410Z,99715.38
2022-12-13T08:11:21.028Z,99707.22
2022-12-13T08:13:47.895Z,99710.03
2022-12-13T08:16:26.002Z,99708.44
2022-12-13T08:19:02.796Z,99715.47
2022-12-13T08:21:55.681Z,99717.06
2022-12-13T08:24:30.744Z,99714.34
2022-12-13T08:27:02.916Z,99719.72
2022-12-13T08:29:33.328Z,99720.78
2022-12-13T08:32:05.465Z,99723.28
2022-12-13T08:34:32.207Z,99727.16
2022-12-13T08:37:01.795Z,99721.94
2022-12-13T08:39:35.523Z,99722.00
2022-12-13T08:42:16.286Z,99719.06
2022-12-13T08:44:50.379Z,99727.50
2022-12-13T08:47:23.097Z,99723.63
2022-12-13T08:50:01.513Z,99717.81
2022-12-13T08:52:40.436Z,99730.69
2022-12-13T08:55:10.770Z,99712.94
2022-12-13T08:57:39.590Z,99721.13
2022-12-13T09:00:08.092Z,99717.31
2022-12-13T09:02:38.173Z,99720.69
2022-12-13T09:05:08.027Z,99719.56
2022-12-13T09:07:36.400Z,99718.78
2022-12-13T09:10:25.613Z,99725.47
2022-12-13T09:12:52.085Z,99718.63
2022-12-13T09:15:33.732Z,99719.34
2022-12-13T09:18:04.920Z,99717.47
2022-12-13T09:20:41.245Z,99713.69
2022-12-13T09:23:13.798Z,99705.66
2022-12-13T09:26:05.912Z,99710.16
2022-12-13T09:28:34.793Z,99711.47
2022-12-13T09:31:01.979Z,99712.28
2022-12-13T09:33:30.073Z,99710.41
2022-12-13T09:35:58.330Z,99708.28
2022-12-13T09:38:28.343Z,99704.97
2022-12-13T09:40:58.962Z,99702.69
2022-12-13T09:43:32.649Z,99701.38
2022-12-13T09:46:04.315Z,99692.41
2022-12-13T09:48:40.934Z,99691.63
2022-12-13T09:51:27.277Z,99689.59
2022-12-13T09:53:57.527Z,99694.31
2022-12-13T09:56:27.627Z,99687.19
2022-12-13T09:58:56.631Z,99688.56
2022-12-13T10:01:24.768Z,99691.78
2022-12-13T10:03:54.153Z,99689.91
2022-12-13T10:06:24.136Z,99681.31
2022-12-13T10:08:57.361Z,99676.63
2022-12-13T10:11:31.284Z,99675.69
2022-12-13T10:14:37.450Z,99681.31
2022-12-13T10:17:08.751Z,99679.19
2022-12-13T10:19:47.260Z,99674.59
2022-12-13T10:22:19.295Z,99670.84
2022-12-13T10:24:56.629Z,99669.50
2022-12-13T10:27:45.883Z,99671.78
2022-12-13T10:30:28.875Z,99674.06
2022-12-13T10:32:59.805Z,99661.44
2022-12-13T10:35:30.808Z,99660.88
2022-12-13T10:38:04.629Z,99660.03
2022-12-13T10:40:33.283Z,99664.06
2022-12-13T10:43:15.471Z,99662.72
2022-12-13T10:45:44.488Z,99661.78
2022-12-13T10:48:39.506Z,99650.09
2022-12-13T10:51:12.367Z,99648.75
2022-12-13T10:53:53.683Z,99641.78
2022-12-13T10:56:24.051Z,99642.97
2022-12-13T10:59:14.987Z,99638.25
2022-12-13T11:01:44.563Z,99637.56
2022-12-13T11:04:29.829Z,99634.63
2022-12-13T11:06:58.894Z,99639.03
2022-12-13T11:09:30.202Z,99640.66
2022-12-13T11:12:18.749Z,99631.53
2022-12-13T11:15:07.513Z,99630.22
2022-12-13T11:17:47.212Z,99627.25
2022-12-13T11:20:29.250Z,99626.88
2022-12-13T11:23:06.787Z,99623.63
2022-12-13T11:25:44.169Z,99626.25
2022-12-13T11:28:28.029Z,99622.91
2022-12-13T11:31:32.162Z,99624.09
2022-12-13T11:34:20.353Z,99622.19
2022-12-13T11:37:04.593Z,99617.66
2022-12-13T11:39:38.786Z,99618.03
2022-12-13T11:42:26.418Z,99618.72
2022-12-13T11:45:22.913Z,99614.13
2022-12-13T11:48:09.477Z,99602.00
2022-12-13T11:50:40.625Z,99619.22
2022-12-13T11:53:13.824Z,99613.41
2022-12-13T11:55:47.334Z,99607.34
2022-12-13T12:01:39.169Z,99602.13
2022-12-13T12:04:24.556Z,99601.84
2022-12-13T12:07:33.606Z,99604.41
2022-12-13T12:10:21.895Z,99601.22
2022-12-13T12:12:56.888Z,99593.94
2022-12-13T12:15:30.229Z,99596.00
2022-12-13T12:17:57.772Z,99599.09
2022-12-13T12:20:41.718Z,99597.75
2022-12-13T12:23:37.401Z,99589.44
2022-12-13T12:26:18.961Z,99580.84
2022-12-13T12:28:51.824Z,99580.69
2022-12-13T12:31:50.711Z,99586.47
2022-12-13T12:34:30.100Z,99584.63
2022-12-13T12:37:08.515Z,99579.91
2022-12-13T12:40:08.958Z,99590.78
2022-12-13T12:46:06.795Z,99584.88
2022-12-13T12:49:14.287Z,99582.59
2022-12-13T12:51:49.752Z,99580.59
2022-12-13T12:54:42.349Z,99580.19
2022-12-13T12:57:34.165Z,99587.56
2022-12-13T13:00:21.853Z,99586.25
2022-12-13T13:03:01.446Z,99584.06
2022-12-13T13:05:40.154Z,99583.25
2022-12-13T13:08:22.570Z,99588.50
2022-12-13T13:10:50.578Z,99588.50
2022-12-13T13:13:46.534Z,99586.38
2022-12-13T13:16:32.985Z,99579.53
2022-12-13T13:19:04.027Z,99589.44
2022-12-13T13:21:49.617Z,99594.03
2022-12-13T13:24:20.431Z,99596.03
2022-12-13T13:26:50.403Z,99596.97
2022-12-13T13:29:29.957Z,99594.84
2022-12-13T13:32:11.152Z,99597.38
2022-12-13T13:34:44.154Z,99603.44
2022-12-13T13:37:45.121Z,99617.66
2022-12-13T13:40:30.826Z,99608.38
2022-12-13T13:43:12.685Z,99609.03
2022-12-13T13:45:57.411Z,99599.41
2022-12-13T13:48:37.000Z,99597.38
2022-12-13T13:51:12.884Z,99581.41
2022-12-13T13:54:11.790Z,99577.50
2022-12-13T13:57:16.182Z,99582.47
2022-12-13T14:00:20.684Z,99582.47
2022-12-13T14:03:02.903Z,99572.81
2022-12-13T14:06:08.218Z,99584.06
2022-12-13T14:08:49.884Z,99579.63
2022-12-13T14:11:48.923Z,99583.25
2022-12-13T14:14:53.166Z,99596.94
2022-12-13T14:17:56.556Z,99603.91
2022-12-13T14:20:39.399Z,99597.19
2022-12-13T14:23:30.029Z,99592.38
2022-12-13T14:26:06.462Z,99602.56
2022-12-13T14:28:39.497Z,99604.44
2022-12-13T14:31:22.350Z,99607.63
2022-12-13T14:33:51.980Z,99598.91
2022-12-13T14:36:29.166Z,99608.19
2022-12-13T14:39:05.255Z,99612.59
2022-12-13T14:41:33.024Z,99613.31
2022-12-13T14:44:17.355Z,99616.34
2022-12-13T14:46:56.627Z,99620.78
2022-12-13T14:49:26.228Z,99610.59
2022-12-13T14:52:26.318Z,99603.63
2022-12-13T14:54:58.812Z,99604.56
2022-12-13T14:57:28.763Z,99608.84
2022-12-13T14:59:57.962Z,99616.75
2022-12-13T15:02:31.084Z,99614.06
2022-12-13T15:05:05.612Z,99616.50
2022-12-13T15:07:41.488Z,99625.06
2022-12-13T15:10:28.090Z,99620.88
2022-12-13T15:12:55.639Z,99630.94
2022-12-13T15:15:36.183Z,99632.00
2022-12-13T15:18:23.708Z,99630.41
2022-12-13T15:20:58.110Z,99645.28
2022-12-13T15:23:48.567Z,99645.28
2022-12-13T15:26:27.686Z,99640.59
2022-12-13T15:28:59.447Z,99644.19
2022-12-13T15:31:28.978Z,99644.44
2022-12-13T15:34:28.828Z,99636.25
2022-12-13T15:36:59.346Z,99627.13
2022-12-13T15:39:28.774Z,99633.94
2022-12-13T15:41:57.198Z,99627.13
2022-12-13T15:44:32.768Z,99632.06
2022-12-13T15:47:28.231Z,99631.06
2022-12-13T15:50:01.879Z,99632.00
2022-12-13T15:52:38.492Z,99631.34
2022-12-13T15:55:11.122Z,99622.06
2022-12-13T15:57:57.217Z,99623.50
2022-12-13T16:00:30.652Z,99631.94
2022-12-13T16:03:14.776Z,99628.72
2022-12-13T16:05:50.189Z,99633.69
2022-12-13T16:08:28.895Z,99632.88
2022-12-13T16:10:56.407Z,99622.69
2022-12-13T16:13:30.625Z,99623.84
2022-12-13T16:16:09.573Z,99630.66
2022-12-13T16:19:07.211Z,99631.06
2022-12-13T16:21:34.039Z,99632.94
2022-12-13T16:24:00.841Z,99629.94
2022-12-13T16:26:28.826Z,99626.03
2022-12-13T16:28:58.841Z,99631.13
2022-12-13T16:31:28.435Z,99630.19
2022-12-13T16:33:55.384Z,99630.88
2022-12-13T16:36:22.296Z,99629.94
2022-12-13T16:38:49.105Z,99629.50
2022-12-13T16:41:16.454Z,99636.81
2022-12-13T16:43:56.810Z,99631.31
2022-12-13T16:47:12.885Z,99627.25
2022-12-13T16:49:24.784Z,99631.50
2022-12-13T16:51:52.239Z,99634.72
2022-12-13T16:54:23.804Z,99637.81
2022-12-13T16:56:51.770Z,99637.94
2022-12-13T16:59:22.607Z,99645.94
2022-12-13T17:01:51.086Z,99650.13
2022-12-13T17:04:21.554Z,99654.50
2022-12-13T17:06:55.120Z,99648.84
2022-12-13T17:09:22.828Z,99651.13
2022-12-13T17:11:49.532Z,99644.81
2022-12-13T17:14:16.429Z,99646.09
2022-12-13T17:16:43.321Z,99652.00
2022-12-13T17:19:11.544Z,99639.66
2022-12-13T17:21:38.435Z,99651.91
2022-12-13T17:24:06.003Z,99648.69
2022-12-13T17:26:32.960Z,99641.44
2022-12-13T17:28:59.740Z,99648.47
2022-12-13T17:31:31.891Z,99646.66
2022-12-13T17:34:02.868Z,99651.47
2022-12-13T17:36:31.578Z,99651.34
2022-12-13T17:38:58.617Z,99648.38
2022-12-13T17:41:25.723Z,99652.88
2022-12-13T17:43:52.499Z,99649.91
2022-12-13T17:46:19.557Z,99650.13
2022-12-13T17:48:46.794Z,99648.75
2022-12-13T17:51:14.614Z,99649.31
2022-12-13T17:53:44.798Z,99648.06
2022-12-13T17:56:22.393Z,99653.03
2022-12-13T17:58:51.487Z,99650.88
2022-12-13T18:01:20.961Z,99645.19
2022-12-13T18:03:51.315Z,99636.06
2022-12-13T18:06:18.520Z,99645.53
2022-12-13T18:08:46.734Z,99643.69
2022-12-13T18:11:33.668Z,99641.28
2022-12-13T18:14:02.454Z,99633.78
2022-12-13T18:16:36.465Z,99640.00
2022-12-13T18:19:11.288Z,99632.50
2022-12-13T18:21:38.126Z,99626.59
2022-12-13T18:24:09.219Z,99637.69
2022-12-13T18:26:36.023Z,99641.41
2022-12-13T18:29:04.308Z,99640.38
2022-12-13T18:31:31.568Z,99635.63
2022-12-13T18:33:58.809Z,99639.81
2022-12-13T18:36:26.681Z,99638.41
2022-12-13T18:38:53.739Z,99645.34
2022-12-13T18:41:28.382Z,99636.78
2022-12-13T18:44:08.035Z,99644.78
2022-12-13T18:46:36.447Z,99636.47
2022-12-13T18:49:03.835Z,99632.50
2022-12-13T18:51:30.802Z,99639.56
2022-12-13T18:53:57.698Z,99644.16
2022-12-13T18:56:26.543Z,99637.69
2022-12-13T18:58:53.687Z,99637.13
2022-12-13T19:01:22.989Z,99639.56
2022-12-13T19:03:51.037Z,99647.88
2022-12-13T19:06:24.025Z,99650.66
2022-12-13T19:08:56.419Z,99656.88
2022-12-13T19:11:27.550Z,99653.66
2022-12-13T19:13:54.899Z,99660.22
2022-12-13T19:16:23.563Z,99659.66
2022-12-13T19:18:51.194Z,99658.63
2022-12-13T19:21:20.255Z,99666.13
2022-12-13T19:23:56.851Z,99656.66
2022-12-13T19:26:28.763Z,99649.06
2022-12-13T19:28:57.371Z,99652.28
2022-12-13T19:31:30.483Z,99653.41
2022-12-13T19:33:58.660Z,99658.41
2022-12-13T19:36:25.603Z,99654.59
2022-12-13T19:38:55.388Z,99657.13
2022-12-13T19:41:22.118Z,99653.25
2022-12-13T19:43:52.945Z,99656.16
2022-12-13T19:46:20.221Z,99650.16
2022-12-13T19:48:47.526Z,99643.91
2022-12-13T19:51:15.797Z,99641.63
2022-12-13T19:53:42.665Z,99647.38
2022-12-13T19:56:18.630Z,99661.13
2022-12-13T19:58:46.907Z,99655.22
2022-12-13T20:01:13.961Z,99654.31
2022-12-13T20:03:42.991Z,99656.84
2022-12-13T20:06:13.431Z,99653.38
2022-12-13T20:08:40.828Z,99662.72
2022-12-13T20:11:10.294Z,99659.84
2022-12-13T20:13:38.161Z,99660.75
2022-12-13T20:16:05.501Z,99657.19
2022-12-13T20:18:33.051Z,99664.31
2022-12-13T20:21:12.952Z,99655.34
2022-12-13T20:23:41.100Z,99655.34
2022-12-13T20:26:11.496Z,99651.31
2022-12-13T20:28:38.393Z,99651.19
2022-12-13T20:31:13.836Z,99655.66
2022-12-13T20:33:42.347Z,99647.97
2022-12-13T20:36:27.384Z,99638.69
2022-12-13T20:38:56.369Z,99624.94
2022-12-13T20:41:24.675Z,99628.78
2022-12-13T20:43:53.223Z,99633.75
2022-12-13T20:46:21.038Z,99622.66
2022-12-13T20:48:49.199Z,99619.22
2022-12-13T20:51:19.901Z,99623.69
2022-12-13T20:53:48.585Z,99623.81
2022-12-13T20:56:20.651Z,99615.41
2022-12-13T20:58:47.454Z,99620.47
2022-12-13T21:01:28.299Z,99611.13
2022-12-13T21:03:58.413Z,99618.75
2022-12-13T21:06:25.707Z,99618.06
2022-12-13T21:08:52.842Z,99615.59
2022-12-13T21:11:25.168Z,99618.63
2022-12-13T21:14:22.382Z,99611.53
2022-12-13T21:16:52.915Z,99614.00
2022-12-13T21:19:25.125Z,99612.81
2022-12-13T21:21:53.563Z,99611.19
2022-12-13T21:24:21.788Z,99608.56
2022-12-13T21:26:48.911Z,99599.31
2022-12-13T21:29:18.832Z,99603.59
2022-12-13T21:31:49.958Z,99597.03
2022-12-13T21:34:21.581Z,99600.56
2022-12-13T21:36:50.851Z,99600.81
2022-12-13T21:39:20.033Z,99590.53
2022-12-13T21:41:46.793Z,99592.38
2022-12-13T21:44:16.618Z,99599.31
2022-12-13T21:49:30.902Z,99590.19
2022-12-13T21:51:58.697Z,99587.28
2022-12-13T21:54:27.972Z,99592.47
2022-12-13T21:57:13.393Z,99585.06
2022-12-13T21:59:41.203Z,99589.53
2022-12-13T22:02:19.289Z,99590.59
2022-12-13T22:04:54.206Z,99582.53
2022-12-13T22:07:24.099Z,99586.81
2022-12-13T22:09:52.499Z,99587.00
2022-12-13T22:12:31.220Z,99588.16
2022-12-13T22:14:57.967Z,99599.56
2022-12-13T22:17:34.583Z,99593.00
2022-12-13T22:20:02.645Z,99593.13
2022-12-13T22:22:31.258Z,99593.69
2022-12-13T22:24:58.016Z,99596.50
2022-12-13T22:27:25.720Z,99588.84
2022-12-13T22:29:54.033Z,99586.06
2022-12-13T22:32:21.739Z,99579.13
2022-12-13T22:34:48.664Z,99573.38
2022-12-13T22:37:20.424Z,99576.19
2022-12-13T22:39:47.226Z,99568.56
2022-12-13T22:42:15.737Z,99564.84
2022-12-13T22:44:42.811Z,99563.25
2022-12-13T22:47:12.061Z,99566.03
2022-12-13T22:49:38.869Z,99556.56
2022-12-13T22:52:05.757Z,99552.41
2022-12-13T22:54:32.604Z,99554.47
2022-12-13T22:56:59.460Z,99556.09
2022-12-13T22:59:26.217Z,99551.03
2022-12-13T23:02:01.399Z,99540.63
2022-12-13T23:04:29.159Z,99543.34
2022-12-13T23:06:55.921Z,99543.34
2022-12-13T23:09:22.644Z,99542.19
2022-12-13T23:12:07.811Z,99549.66
2022-12-13T23:14:35.104Z,99532.63
2022-12-13T23:17:04.833Z,99534.13
2022-12-13T23:19:41.687Z,99535.25
2022-12-13T23:22:18.644Z,99539.19
2022-12-13T23:24:45.341Z,99541.22
2022-12-13T23:27:12.238Z,99540.41
2022-12-13T23:29:40.369Z,99537.19
2022-12-13T23:32:07.229Z,99537.06
2022-12-13T23:34:33.997Z,99529.78
2022-12-13T23:37:00.686Z,99526.66
2022-12-13T23:39:27.535Z,99522.41
2022-12-13T23:41:55.161Z,99516.75
2022-12-13T23:44:22.721Z,99508.56
2022-12-13T23:46:49.601Z,99508.63
2022-12-13T23:49:16.498Z,99505.63
2022-12-13T23:51:43.554Z,99507.03
2022-12-13T23:54:16.445Z,99517.63
2022-12-13T23:56:47.030Z,99513.00
2022-12-13T23:59:13.783Z,99515.13
